Time;durP1;ratioP1;P1;durP2;ratioP2;P2;SDS_P1;SDS_P2;PMS_P1;PMS_P2;Temp;Humidity;BMP_temperature;BMP_pressure;BME280_temperature;BME280_humidity;BME280_pressure;Samples;Min_cycle;Max_cycle;Signal;HPM_P1;HPM_P2
2021/11/23 00:01:29;;;;;;;16.67;8.57;;;9.60;99.90;;;9.79;69.50;103010.19;5055522;28;20118;-67
2021/11/23 00:03:59;;;;;;;21.30;8.93;;;9.60;99.90;;;9.86;69.71;103013.94;5055712;28;20095;-67
2021/11/23 00:06:29;;;;;;;17.05;8.40;;;9.60;99.90;;;9.86;69.16;103011.31;5055477;28;20049;-66
2021/11/23 00:08:57;;;;;;;15.43;8.23;;;9.60;99.90;;;9.81;69.37;103008.50;5055754;28;20075;-67
2021/11/23 00:11:28;;;;;;;17.00;8.63;;;9.60;99.90;;;9.78;69.55;103002.22;5055554;28;20049;-67
2021/11/23 00:13:57;;;;;;;14.85;7.88;;;9.60;99.90;;;9.78;69.23;103004.88;5055565;28;20041;-67
2021/11/23 00:16:26;;;;;;;23.42;9.65;;;9.60;99.90;;;9.85;69.78;103001.59;5054314;28;20041;-67
2021/11/23 00:18:54;;;;;;;16.42;9.13;;;9.60;99.90;;;9.88;69.61;103005.22;5055193;28;20045;-67
2021/11/23 00:21:23;;;;;;;14.43;7.95;;;9.70;99.90;;;9.83;69.52;103000.66;5055463;28;20048;-67
2021/11/23 00:23:51;;;;;;;14.48;7.45;;;9.70;99.90;;;9.76;69.45;103003.91;5055122;28;20095;-67
2021/11/23 00:26:20;;;;;;;14.95;8.02;;;9.60;99.90;;;9.68;69.59;103003.66;5070770;28;20059;-67
2021/11/23 00:28:50;;;;;;;13.77;7.53;;;9.50;99.90;;;9.66;69.81;103008.00;5055296;28;20045;-67
2021/11/23 00:31:18;;;;;;;14.35;8.27;;;9.40;99.90;;;9.59;70.29;103003.38;5055038;28;20048;-67
2021/11/23 00:33:47;;;;;;;10.95;6.20;;;9.30;99.90;;;9.55;70.70;102996.19;5054873;28;20041;-67
2021/11/23 00:36:15;;;;;;;11.70;6.35;;;9.30;99.90;;;9.51;70.70;103001.28;5054914;28;20041;-67
2021/11/23 00:38:45;;;;;;;8.43;6.03;;;9.20;99.90;;;8.86;70.81;102888.16;5054884;28;20075;-67
2021/11/23 00:41:17;;;;;;;8.77;6.40;;;9.10;99.90;;;9.47;70.64;103002.03;5054822;28;20037;-67
2021/11/23 00:43:47;;;;;;;9.65;6.90;;;9.10;99.90;;;9.36;70.93;102972.63;5055144;28;20052;-67
2021/11/23 00:46:18;;;;;;;10.32;7.10;;;9.10;99.90;;;9.51;70.97;102991.63;5055080;28;20041;-67
2021/11/23 00:48:51;;;;;;;12.32;7.10;;;9.20;99.90;;;9.52;70.86;102981.97;5054851;28;20056;-67
2021/11/23 00:51:21;;;;;;;11.00;7.47;;;9.30;99.90;;;9.61;70.98;102998.13;5054572;28;20083;-67
2021/11/23 00:53:50;;;;;;;13.07;7.50;;;9.30;99.90;;;9.54;71.32;103002.28;5054548;28;20517;-67
2021/11/23 00:56:19;;;;;;;13.27;7.20;;;9.20;99.90;;;9.49;71.80;103000.34;5054524;28;20106;-67
2021/11/23 00:58:47;;;;;;;10.25;7.43;;;9.20;99.90;;;9.22;71.62;102951.84;5054456;28;20037;-67
2021/11/23 01:01:17;;;;;;;11.55;6.88;;;9.10;99.90;;;9.50;71.93;102997.78;5054396;28;20119;-67
2021/11/23 01:03:46;;;;;;;11.68;6.93;;;9.10;99.90;;;9.51;71.84;103004.84;5054510;28;20136;-67
2021/11/23 01:06:14;;;;;;;8.85;6.60;;;9.10;99.90;;;9.39;71.87;102978.00;5054282;28;20033;-67
2021/11/23 01:08:43;;;;;;;13.10;7.45;;;9.20;99.90;;;8.97;72.45;102897.31;5054292;28;20056;-66
2021/11/23 01:11:14;;;;;;;13.35;7.82;;;9.20;99.90;;;9.54;72.40;102998.78;5054166;28;20101;-67
2021/11/23 01:13:43;;;;;;;13.73;7.93;;;9.20;99.90;;;9.58;72.73;102998.91;5054162;28;20098;-67
2021/11/23 01:16:12;;;;;;;15.82;7.20;;;9.20;99.90;;;9.55;73.30;102995.28;5054613;28;20124;-66
2021/11/23 01:18:42;;;;;;;16.70;7.38;;;9.20;99.90;;;9.62;73.04;102994.66;5054027;28;20049;-67
2021/11/23 01:21:12;;;;;;;10.38;7.07;;;9.20;99.90;;;9.52;72.80;102958.19;5054351;28;20075;-67
2021/11/23 01:23:41;;;;;;;14.20;6.97;;;9.30;99.90;;;9.63;73.25;102985.88;5054058;28;20048;-67
2021/11/23 01:26:10;;;;;;;10.10;6.65;;;9.30;99.90;;;9.71;73.31;102993.22;5053951;28;20124;-67
2021/11/23 01:28:39;;;;;;;11.23;7.28;;;9.40;99.90;;;9.78;73.74;102987.25;5053915;28;20040;-67
2021/11/23 01:31:08;;;;;;;10.85;7.68;;;9.40;99.90;;;9.82;73.74;102985.63;5053819;28;20044;-67
2021/11/23 01:33:36;;;;;;;9.43;7.00;;;9.40;99.90;;;9.74;73.55;102968.59;5053824;28;20047;-67
2021/11/23 01:36:06;;;;;;;10.70;7.68;;;9.50;99.90;;;9.85;73.96;102988.38;5053426;28;20616;-67
2021/11/23 01:38:35;;;;;;;11.20;6.93;;;9.50;99.90;;;9.88;73.98;102981.44;5053667;28;20044;-67
2021/11/23 01:41:03;;;;;;;8.70;6.47;;;9.50;99.90;;;9.99;74.07;102982.66;5053605;28;20131;-67
2021/11/23 01:43:32;;;;;;;11.75;6.95;;;9.50;99.90;;;10.00;74.48;102971.25;5053616;28;20091;-67
2021/11/23 01:46:01;;;;;;;11.93;7.05;;;9.60;99.90;;;10.21;73.84;102981.63;5053782;28;20049;-67
2021/11/23 01:48:30;;;;;;;13.43;6.95;;;9.80;99.90;;;10.28;73.91;102966.88;5053717;28;20053;-67
2021/11/23 01:50:58;;;;;;;11.45;6.38;;;9.90;99.90;;;10.40;73.25;102972.50;5052135;28;20049;-67
2021/11/23 01:53:28;;;;;;;10.30;5.85;;;10.00;99.90;;;10.45;73.42;102976.19;5052437;28;20490;-66
2021/11/23 01:55:57;;;;;;;14.00;6.80;;;10.10;99.90;;;10.33;74.02;102983.75;5053656;28;20052;-66
2021/11/23 01:58:29;;;;;;;14.95;7.28;;;10.00;99.90;;;10.27;73.81;102986.22;5053650;28;20041;-66
2021/11/23 02:00:58;;;;;;;8.07;6.60;;;10.00;99.90;;;10.19;74.35;102985.97;5053377;28;20116;-66
2021/11/23 02:03:26;;;;;;;10.48;6.80;;;9.90;99.90;;;10.21;74.37;102975.44;5053409;28;20486;-67
2021/11/23 02:05:55;;;;;;;13.23;7.22;;;9.90;99.90;;;10.17;74.06;102971.81;5053533;28;20083;-67
2021/11/23 02:08:23;;;;;;;12.70;7.22;;;9.80;99.90;;;10.18;74.05;102973.59;5053498;28;20053;-67
2021/11/23 02:10:53;;;;;;;11.65;7.20;;;9.80;99.90;;;10.20;74.39;102973.66;5053462;28;20056;-66
2021/11/23 02:13:22;;;;;;;8.83;6.87;;;9.80;99.90;;;10.22;73.65;102970.19;5053691;28;20084;-67
2021/11/23 02:15:51;;;;;;;14.30;7.22;;;9.90;99.90;;;10.29;73.58;102971.28;5053021;28;20079;-66
2021/11/23 02:18:23;;;;;;;15.27;7.30;;;10.00;99.90;;;10.40;73.09;102969.84;5068801;28;20045;-75
2021/11/23 02:20:54;;;;;;;14.63;6.90;;;10.00;99.90;;;10.45;72.48;102961.19;5052444;28;20041;-73
2021/11/23 02:23:24;;;;;;;10.93;6.65;;;10.10;99.90;;;10.39;72.87;102966.34;5052822;28;20088;-74
2021/11/23 02:25:53;;;;;;;14.20;6.88;;;10.10;99.90;;;10.39;73.53;102970.72;5052533;28;20048;-73
2021/11/23 02:28:21;;;;;;;13.95;6.60;;;10.10;99.90;;;10.40;73.19;102946.94;5052671;28;20043;-73
2021/11/23 02:30:53;;;;;;;14.98;6.95;;;10.10;99.90;;;10.47;73.49;102958.63;5052520;28;20552;-73
2021/11/23 02:33:24;;;;;;;13.20;6.60;;;10.10;99.90;;;10.52;73.35;102963.19;5052786;28;20056;-74
2021/11/23 02:35:57;;;;;;;9.30;6.43;;;10.10;99.90;;;10.53;73.48;102962.31;5052672;28;20041;-74
2021/11/23 02:38:26;;;;;;;9.70;6.25;;;10.20;99.90;;;10.53;73.65;102956.16;5052401;28;20045;-73
2021/11/23 02:40:55;;;;;;;11.25;6.55;;;10.20;99.90;;;10.41;73.96;102930.25;5052874;28;20045;-73
2021/11/23 02:43:23;;;;;;;11.95;6.47;;;10.20;99.90;;;10.60;73.30;102956.38;5053005;28;20477;-74
2021/11/23 02:45:53;;;;;;;9.43;6.20;;;10.30;99.90;;;10.41;73.62;102950.50;5052082;28;20052;-74
2021/11/23 02:48:22;;;;;;;14.23;6.60;;;10.10;99.90;;;10.25;74.21;102945.59;5052268;28;20061;-74
2021/11/23 02:50:58;;;;;;;15.02;6.57;;;9.90;99.90;;;10.23;74.72;102945.56;5056329;28;20049;-73
2021/11/23 02:53:27;;;;;;;10.63;6.18;;;9.90;99.90;;;10.33;74.37;102934.41;5056318;28;20075;-74
2021/11/23 02:55:55;;;;;;;11.05;6.30;;;10.00;99.90;;;10.41;74.17;102934.63;5056061;28;20041;-74
2021/11/23 02:58:24;;;;;;;15.10;7.13;;;10.00;99.90;;;10.48;73.52;102931.28;5056403;28;20457;-74
2021/11/23 03:00:52;;;;;;;13.40;6.50;;;10.10;99.90;;;10.56;73.35;102927.13;5056030;28;20036;-73
2021/11/23 03:03:21;;;;;;;10.18;5.88;;;10.20;99.90;;;10.60;72.93;102929.91;5056295;28;20073;-73
2021/11/23 03:05:49;;;;;;;11.43;6.15;;;10.30;99.90;;;10.66;73.04;102924.78;5055964;28;20064;-73
2021/11/23 03:08:19;;;;;;;11.15;6.03;;;10.40;99.90;;;10.72;72.81;102916.13;5055924;28;20102;-73
2021/11/23 03:10:49;;;;;;;13.80;6.55;;;10.40;99.90;;;10.76;72.76;102913.59;5056214;28;20045;-73
2021/11/23 03:13:17;;;;;;;12.43;5.57;;;10.40;99.90;;;10.82;72.50;102918.16;5055842;28;20135;-74
2021/11/23 03:15:46;;;;;;;20.05;6.75;;;10.50;99.90;;;10.81;72.38;102916.38;5054706;28;20048;-74
2021/11/23 03:18:14;;;;;;;13.02;6.25;;;10.50;99.90;;;10.83;72.29;102917.31;5055858;28;20068;-73
2021/11/23 03:20:44;;;;;;;14.25;6.07;;;10.50;99.90;;;10.73;72.63;102899.38;5055719;28;20052;-73
2021/11/23 03:23:13;;;;;;;15.15;6.65;;;10.50;99.90;;;10.81;72.58;102911.97;5055966;28;20055;-72
2021/11/23 03:25:43;;;;;;;9.55;5.65;;;10.50;99.90;;;10.83;72.68;102912.00;5055879;28;20072;-73
2021/11/23 03:28:13;;;;;;;9.70;6.10;;;10.50;99.90;;;10.83;72.80;102917.31;5055952;28;20090;-73
2021/11/23 03:30:42;;;;;;;11.27;5.60;;;10.50;99.90;;;10.86;72.53;102912.97;5055807;28;20453;-73
2021/11/23 03:33:11;;;;;;;13.85;5.75;;;10.50;99.90;;;10.84;72.89;102919.09;5055730;28;20041;-73
2021/11/23 03:35:43;;;;;;;11.10;6.30;;;10.50;99.90;;;10.84;73.55;102920.00;5055423;28;20045;-73
2021/11/23 03:38:14;;;;;;;10.70;5.85;;;10.50;99.90;;;10.85;73.54;102915.59;5055959;28;20048;-73
2021/11/23 03:40:44;;;;;;;13.65;5.90;;;10.50;99.90;;;10.84;74.05;102916.44;5055449;28;20095;-73
2021/11/23 03:43:14;;;;;;;10.82;6.18;;;10.40;99.90;;;10.84;74.05;102919.09;5055547;28;20041;-73
2021/11/23 03:45:43;;;;;;;7.72;5.72;;;10.50;99.90;;;10.75;74.39;102901.22;5055879;28;20098;-73
2021/11/23 03:48:11;;;;;;;11.70;6.28;;;10.50;99.90;;;10.93;74.24;102926.41;5055038;28;20057;-73
2021/11/23 03:50:40;;;;;;;12.48;5.95;;;10.50;99.90;;;10.92;74.33;102921.97;5054281;28;20049;-74
2021/11/23 03:53:09;;;;;;;11.73;5.82;;;10.50;99.90;;;10.78;75.15;102938.34;5054316;28;20148;-73
2021/11/23 03:55:38;;;;;;;12.77;5.78;;;10.40;99.90;;;10.84;75.80;102927.03;5054210;28;20071;-73
2021/11/23 03:58:08;;;;;;;11.27;5.10;;;10.40;99.90;;;10.89;75.72;102918.38;5054271;28;20041;-73
2021/11/23 04:00:36;;;;;;;11.48;5.60;;;10.50;99.90;;;11.04;75.88;102922.28;5053916;28;20045;-73
2021/11/23 04:03:05;;;;;;;8.18;5.28;;;10.60;99.90;;;11.10;76.10;102928.66;5054246;28;20037;-73
2021/11/23 04:05:33;;;;;;;11.43;5.63;;;10.70;99.90;;;11.11;76.48;102922.47;5054312;28;20067;-73
2021/11/23 04:08:02;;;;;;;9.18;5.22;;;10.70;99.90;;;11.13;76.59;102923.41;5053865;28;20129;-73
2021/11/23 04:10:30;;;;;;;10.52;5.32;;;10.70;99.90;;;11.21;76.28;102915.66;5054165;28;20037;-73
2021/11/23 04:12:59;;;;;;;14.50;5.97;;;10.80;99.90;;;11.28;75.76;102910.59;5053862;28;20072;-74
2021/11/23 04:15:28;;;;;;;14.65;5.65;;;10.90;99.90;;;11.35;75.55;102912.53;5053767;28;20409;-72
2021/11/23 04:17:57;;;;;;;10.30;5.20;;;11.00;99.90;;;11.46;75.55;102921.63;5054345;28;20118;-73
2021/11/23 04:20:25;;;;;;;9.50;5.45;;;11.10;99.90;;;11.39;74.98;102911.75;5054333;28;20428;-73
2021/11/23 04:22:53;;;;;;;9.02;5.05;;;11.10;99.90;;;11.45;74.61;102916.28;5053889;28;20453;-74
2021/11/23 04:25:22;;;;;;;8.60;5.32;;;11.20;99.90;;;11.49;74.74;102918.16;5053925;28;20060;-73
2021/11/23 04:27:52;;;;;;;8.95;4.85;;;11.20;99.90;;;11.51;75.02;102916.44;5053581;28;20051;-74
2021/11/23 04:30:21;;;;;;;10.38;5.70;;;11.20;99.90;;;11.44;75.54;102912.75;5052204;28;20498;-73
2021/11/23 04:32:51;;;;;;;13.05;5.10;;;11.10;99.90;;;11.37;75.60;102905.50;5053751;28;20068;-74
2021/11/23 04:35:20;;;;;;;9.13;5.28;;;11.10;99.90;;;11.43;75.10;102904.75;5053518;28;20437;-73
2021/11/23 04:37:49;;;;;;;12.45;5.25;;;11.10;99.90;;;11.51;75.00;102914.69;5053414;28;20563;-73
2021/11/23 04:40:18;;;;;;;7.68;5.00;;;11.20;99.90;;;11.49;75.16;102915.50;5053626;28;20386;-74
2021/11/23 04:42:48;;;;;;;6.87;4.80;;;11.10;99.90;;;11.44;75.63;102917.16;5053372;28;20045;-75
2021/11/23 04:45:17;;;;;;;8.27;4.70;;;11.10;99.90;;;11.54;75.36;102911.22;5053254;28;20311;-74
2021/11/23 04:47:46;;;;;;;10.60;4.50;;;11.10;99.90;;;11.54;75.70;102920.06;5010182;28;1230808;-75
2021/11/23 04:50:16;;;;;;;10.05;4.95;;;11.20;99.90;;;11.57;76.15;102916.59;5054291;28;20464;-73
2021/11/23 04:52:45;;;;;;;12.38;5.30;;;11.20;99.90;;;11.49;75.80;102905.81;5054213;28;20052;-74
2021/11/23 04:55:14;;;;;;;6.20;5.15;;;11.20;99.90;;;11.08;76.70;102858.84;5054379;28;20045;-75
2021/11/23 04:57:42;;;;;;;8.10;5.15;;;11.00;99.90;;;11.27;77.08;102905.22;5054002;28;20482;-74
2021/11/23 05:00:17;;;;;;;10.80;5.32;;;10.90;99.90;;;11.29;77.11;102898.22;5053901;28;20073;-74
2021/11/23 05:02:46;;;;;;;11.68;5.20;;;10.90;99.90;;;10.82;77.22;102829.03;5052908;28;20040;-74
2021/11/23 05:05:17;;;;;;;9.20;5.38;;;10.90;99.90;;;11.29;77.31;102899.13;5053883;28;20076;-74
2021/11/23 05:07:45;;;;;;;11.30;5.05;;;10.90;99.90;;;11.35;77.36;102903.66;5054217;28;20144;-74
2021/11/23 05:10:16;;;;;;;10.48;5.00;;;11.00;99.90;;;11.44;77.29;102899.50;5053995;28;20047;-70
2021/11/23 05:12:45;;;;;;;12.73;6.20;;;11.10;99.90;;;11.39;77.56;102901.16;5052934;28;20044;-71
2021/11/23 05:15:14;;;;;;;9.93;5.28;;;11.00;99.90;;;11.46;77.34;102905.72;5053880;28;20435;-71
2021/11/23 05:17:42;;;;;;;9.35;4.75;;;11.10;99.90;;;11.53;76.81;102906.78;5053415;28;20375;-70
2021/11/23 05:20:13;;;;;;;9.80;5.22;;;11.20;99.90;;;11.60;76.97;102906.06;5052425;28;20487;-70
2021/11/23 05:22:43;;;;;;;9.90;5.60;;;11.20;99.90;;;11.57;77.86;102906.91;5053490;28;20464;-73
2021/11/23 05:25:12;;;;;;;9.55;4.63;;;11.20;99.90;;;11.59;77.02;102913.09;5053437;28;20064;-71
2021/11/23 05:27:41;;;;;;;8.30;4.70;;;11.20;99.90;;;11.62;76.88;102907.91;5053715;28;20098;-72
2021/11/23 05:30:12;;;;;;;8.30;4.80;;;11.30;99.90;;;11.64;76.98;102906.19;5053373;28;20215;-72
2021/11/23 05:32:41;;;;;;;;;;;11.30;99.90;;;11.63;77.60;102907.03;5053819;28;20477;-72
2021/11/23 05:35:10;;;;;;;8.68;4.72;;;11.30;99.90;;;11.19;79.34;102897.09;5053427;28;19963;-72
2021/11/23 05:37:39;;;;;;;9.98;5.10;;;10.90;99.90;;;11.30;79.87;102900.94;5052088;28;20045;-71
2021/11/23 05:40:11;;;;;;;9.95;4.85;;;10.80;99.90;;;11.35;79.79;102904.56;5053782;28;20132;-72
2021/11/23 05:42:40;;;;;;;9.80;4.97;;;10.90;99.90;;;11.40;79.78;102900.28;5053283;28;20049;-72
2021/11/23 05:45:12;;;;;;;7.30;4.85;;;11.00;99.90;;;11.45;79.39;102901.28;5053193;28;20125;-72
2021/11/23 05:47:41;;;;;;;10.88;4.90;;;11.10;99.90;;;11.52;78.62;102900.56;5053105;28;20044;-72
2021/11/23 05:50:10;;;;;;;8.70;4.60;;;11.20;99.90;;;11.63;78.16;102904.38;5053715;28;20529;-71
2021/11/23 05:52:39;;;;;;;10.45;4.43;;;11.20;99.90;;;11.63;78.16;102899.06;5051937;28;20051;-72
2021/11/23 05:55:09;;;;;;;9.23;4.93;;;11.30;99.90;;;11.35;78.38;102848.03;5053223;28;20072;-73
2021/11/23 05:57:40;;;;;;;6.47;4.50;;;11.20;99.90;;;11.53;78.77;102891.78;5053001;28;20040;-72
2021/11/23 06:00:10;;;;;;;9.93;4.95;;;11.20;99.90;;;11.58;79.09;102891.88;5053443;28;20132;-72
2021/11/23 06:02:39;;;;;;;6.38;4.25;;;11.20;99.90;;;11.65;78.55;102897.38;5053798;28;20045;-73
2021/11/23 06:05:08;;;;;;;7.78;5.07;;;11.30;99.90;;;11.76;78.09;102900.31;5053423;28;20131;-72
2021/11/23 06:07:42;;;;;;;9.38;4.65;;;11.40;99.90;;;11.88;77.86;102897.03;5053486;28;20127;-72
2021/11/23 06:10:12;;;;;;;8.82;4.75;;;11.50;99.90;;;11.89;77.53;102894.41;5053065;28;20053;-72
2021/11/23 06:12:40;;;;;;;6.50;4.50;;;11.60;99.90;;;11.93;77.46;102895.38;5052674;28;20581;-73
2021/11/23 06:15:11;;;;;;;7.65;4.97;;;11.60;99.90;;;11.94;77.04;102886.56;5052631;28;20064;-73
2021/11/23 06:17:39;;;;;;;9.95;4.78;;;11.60;99.90;;;12.08;76.78;102895.75;5052540;28;20045;-73
2021/11/23 06:20:09;;;;;;;8.60;5.03;;;11.70;99.90;;;12.08;76.74;102901.91;5052476;28;20116;-72
2021/11/23 06:22:38;;;;;;;8.30;5.10;;;11.70;99.90;;;12.10;76.89;102899.31;5052574;28;20049;-71
2021/11/23 06:25:08;;;;;;;7.07;4.65;;;11.80;99.90;;;12.10;77.23;102902.84;5052535;28;20044;-72
2021/11/23 06:27:38;;;;;;;;;;;11.80;99.90;;;12.16;77.03;102896.78;5052929;28;20379;-71
2021/11/23 06:30:09;;;;;;;9.47;4.33;;;11.80;99.90;;;12.23;76.95;102904.03;5052424;28;19935;-71
2021/11/23 06:32:37;;;;;;;8.65;5.13;;;11.90;99.90;;;12.22;77.50;102911.06;5052465;28;20045;-72
2021/11/23 06:35:07;;;;;;;9.27;4.85;;;11.90;99.90;;;12.20;78.36;102903.94;5052394;28;20120;-72
2021/11/23 06:37:36;;;;;;;8.70;4.85;;;11.80;99.90;;;12.09;78.49;102897.50;5052247;28;20064;-72
2021/11/23 06:40:06;;;;;;;8.88;5.18;;;11.90;99.90;;;12.08;78.43;102901.03;5052467;28;20048;-73
2021/11/23 06:42:34;;;;;;;11.13;5.15;;;11.80;99.90;;;12.10;78.56;102901.97;5052708;28;20127;-72
2021/11/23 06:45:05;;;;;;;11.43;5.28;;;11.70;99.90;;;12.07;78.68;102916.06;5068175;28;20044;-72
2021/11/23 06:47:34;;;;;;;9.93;5.57;;;11.70;99.90;;;12.14;78.64;102907.34;5052560;28;20126;-73
2021/11/23 06:50:03;;;;;;;9.68;4.88;;;11.70;99.90;;;12.14;78.86;102914.41;5052966;28;20063;-74
2021/11/23 06:52:31;;;;;;;9.35;4.43;;;11.80;99.90;;;12.12;78.77;102919.69;5052965;28;20044;-73
2021/11/23 06:55:00;;;;;;;13.57;5.35;;;11.70;99.90;;;12.11;78.68;102922.31;5052715;28;20041;-74
2021/11/23 06:57:28;;;;;;;6.47;4.78;;;11.70;99.90;;;12.07;78.69;102926.66;5052704;28;20049;-74
2021/11/23 06:59:57;;;;;;;6.78;4.70;;;11.70;99.90;;;12.10;78.31;102929.38;5052350;28;20044;-73
2021/11/23 07:02:26;;;;;;;9.88;5.05;;;11.70;99.90;;;12.13;78.67;102931.22;5052271;28;20482;-73
2021/11/23 07:04:55;;;;;;;11.60;4.93;;;11.70;99.90;;;12.20;79.24;102934.03;5052691;28;20139;-72
2021/11/23 07:07:24;;;;;;;11.82;4.72;;;11.80;99.90;;;12.19;79.75;102926.03;5052290;28;20128;-72
2021/11/23 07:09:52;;;;;;;8.13;4.70;;;11.80;99.90;;;12.22;80.25;102926.09;5052477;28;20036;-73
2021/11/23 07:12:21;;;;;;;12.50;4.70;;;11.80;99.90;;;12.35;80.80;102928.19;5052701;28;20067;-72
2021/11/23 07:14:49;;;;;;;9.48;4.72;;;11.90;99.90;;;12.29;81.04;102934.22;5051314;28;20061;-74
2021/11/23 07:17:17;;;;;;;8.52;4.10;;;11.80;99.90;;;11.78;81.41;102837.59;5052224;28;20041;-73
2021/11/23 07:19:49;;;;;;;9.45;4.47;;;11.90;99.90;;;12.41;81.38;102936.25;5067872;28;20065;-73
2021/11/23 07:22:18;;;;;;;15.00;4.80;;;12.00;99.90;;;12.45;81.31;102939.00;5052107;28;20044;-73
2021/11/23 07:24:46;;;;;;;9.90;4.13;;;12.00;99.90;;;12.51;81.23;102946.19;5051947;28;20057;-73
2021/11/23 07:27:15;;;;;;;9.55;4.40;;;12.10;99.90;;;12.53;81.00;102941.81;5052036;28;20079;-74
2021/11/23 07:29:43;;;;;;;8.55;4.50;;;12.10;99.90;;;12.55;80.79;102937.44;5052212;28;20133;-81
2021/11/23 07:32:12;;;;;;;10.57;4.15;;;12.20;99.90;;;12.57;80.97;102946.31;5052071;28;20037;-81
2021/11/23 07:34:42;;;;;;;9.45;3.92;;;12.20;99.90;;;12.59;81.23;102939.28;5052808;28;20124;-82
2021/11/23 07:37:11;;;;;;;10.55;4.40;;;12.20;99.90;;;12.60;80.74;102949.06;5056182;28;20041;-81
2021/11/23 07:39:40;;;;;;;9.05;4.00;;;12.30;99.90;;;12.61;80.89;102954.41;5055582;28;20053;-82
2021/11/23 07:42:09;;;;;;;7.35;4.50;;;12.20;99.90;;;12.59;80.94;102949.91;5055838;28;20458;-78
2021/11/23 07:44:38;;;;;;;10.68;4.82;;;12.20;99.90;;;12.53;81.23;102957.75;5056040;28;20064;-79
2021/11/23 07:47:11;;;;;;;9.25;4.10;;;12.10;99.90;;;12.50;81.34;102952.38;5055419;28;20113;-76
2021/11/23 07:49:39;;;;;;;7.82;4.53;;;12.10;99.90;;;12.48;81.39;102956.75;5055595;28;20147;-78
2021/11/23 07:52:08;;;;;;;9.38;4.20;;;12.10;99.90;;;12.49;81.79;102954.13;5054230;28;20041;-75
2021/11/23 07:54:38;;;;;;;7.63;4.70;;;12.10;99.90;;;12.40;81.81;102938.03;5055385;28;20044;-76
2021/11/23 07:57:07;;;;;;;9.33;4.63;;;12.10;99.90;;;12.58;81.51;102964.94;5055347;28;20063;-77
2021/11/23 07:59:35;;;;;;;7.78;4.10;;;12.20;99.90;;;12.39;81.52;102933.56;5055187;28;20655;-78
2021/11/23 08:02:04;;;;;;;7.57;4.95;;;12.10;99.90;;;12.54;81.93;102963.06;5055508;28;20041;-77
2021/11/23 08:04:33;;;;;;;6.80;4.38;;;12.10;99.90;;;12.57;81.85;102967.56;5053978;28;20051;-77
2021/11/23 08:07:02;;;;;;;11.05;4.53;;;12.20;99.90;;;12.58;81.91;102972.03;5054990;28;20118;-76
2021/11/23 08:09:30;;;;;;;10.30;4.80;;;12.20;99.90;;;12.50;81.77;102960.34;5054907;28;20147;-75
2021/11/23 08:12:00;;;;;;;9.23;3.90;;;12.20;99.90;;;12.43;81.69;102979.63;5055063;28;20071;-74
2021/11/23 08:14:29;;;;;;;6.85;4.28;;;12.10;99.90;;;11.90;82.47;102966.94;5055324;28;20091;-73
2021/11/23 08:16:57;;;;;;;14.35;4.30;;;11.70;99.90;;;11.59;84.29;102982.03;5054962;28;20048;-78
2021/11/23 08:19:26;;;;;;;6.47;4.32;;;11.30;99.90;;;11.43;85.01;102973.66;5054644;28;20041;-78
2021/11/23 08:21:54;;;;;;;11.20;4.20;;;11.10;99.90;;;11.35;86.30;102983.16;5054717;28;20037;-76
2021/11/23 08:24:23;;;;;;;6.95;3.97;;;11.00;99.90;;;11.59;86.11;102984.69;5054618;28;20045;-78
2021/11/23 08:26:56;;;;;;;7.30;4.28;;;11.10;99.90;;;11.72;85.97;102983.28;5054873;28;20056;-77
2021/11/23 08:29:26;;;;;;;13.27;5.15;;;11.20;99.90;;;11.62;85.69;102957.34;5054652;28;20075;-75
2021/11/23 08:31:55;;;;;;;8.32;4.63;;;11.40;99.90;;;11.84;85.50;102990.63;5054618;28;20446;-79
2021/11/23 08:34:24;;;;;;;7.63;5.13;;;11.50;99.90;;;11.98;85.19;102997.19;5054660;28;20045;-77
2021/11/23 08:36:52;;;;;;;7.15;4.70;;;11.60;99.90;;;12.02;84.26;102985.78;5054316;28;20098;-74
2021/11/23 08:39:21;;;;;;;9.57;5.43;;;11.70;99.90;;;12.15;83.70;102996.72;5054570;28;20041;-74
2021/11/23 08:41:51;;;;;;;10.30;5.05;;;11.80;99.90;;;12.23;83.27;102991.59;5054886;28;20057;-75
2021/11/23 08:44:20;;;;;;;8.40;5.07;;;11.90;99.90;;;12.32;83.01;102994.44;5054098;28;20041;-75
2021/11/23 08:46:49;;;;;;;9.13;5.18;;;12.00;99.90;;;12.42;82.76;102994.69;5053483;28;20132;-74
2021/11/23 08:49:18;;;;;;;12.77;5.33;;;12.10;99.90;;;12.57;82.42;102983.50;5054316;28;20124;-74
2021/11/23 08:51:47;;;;;;;9.65;5.43;;;12.20;99.90;;;13.03;83.19;102987.97;5054035;28;20079;-74
2021/11/23 08:54:15;;;;;;;11.68;5.47;;;12.60;99.90;;;13.66;83.81;102993.63;5054022;28;20040;-71
2021/11/23 08:56:51;;;;;;;9.65;4.80;;;13.30;99.90;;;14.30;82.79;102999.13;5054204;28;20542;-71
2021/11/23 08:59:19;;;;;;;11.02;5.20;;;14.00;99.90;;;14.95;80.49;102994.63;5053941;28;20041;-71
2021/11/23 09:01:49;;;;;;;10.70;5.55;;;14.60;99.90;;;15.43;77.94;102995.19;5053848;28;20127;-71
2021/11/23 09:04:18;;;;;;;10.95;5.28;;;15.20;99.90;;;15.97;75.20;103000.09;5052937;28;20048;-72
2021/11/23 09:06:46;;;;;;;11.65;4.57;;;15.70;99.90;;;15.98;72.56;103009.91;5054113;28;20483;-71
2021/11/23 09:09:15;;;;;;;7.45;3.80;;;15.80;99.90;;;15.67;71.92;103003.44;5053805;28;20068;-72
2021/11/23 09:11:44;;;;;;;9.02;4.03;;;15.60;99.90;;;15.64;72.47;103002.53;5053738;28;20067;-71
2021/11/23 09:14:12;;;;;;;7.15;4.10;;;15.40;99.90;;;15.59;71.89;103005.13;5053664;28;20123;-71
2021/11/23 09:16:41;;;;;;;5.25;4.00;;;15.30;99.90;;;15.28;71.95;102974.59;5053615;28;20092;-71
2021/11/23 09:19:11;;;;;;;7.70;4.28;;;15.20;99.90;;;15.49;71.51;103013.03;5053468;28;20049;-71
2021/11/23 09:21:39;;;;;;;7.65;4.22;;;15.10;99.90;;;15.50;70.79;103010.41;5052563;28;20056;-70
2021/11/23 09:24:08;;;;;;;6.72;4.07;;;15.10;99.90;;;15.41;70.73;103004.06;5053747;28;20052;-71
2021/11/23 09:26:37;;;;;;;9.27;4.53;;;15.10;99.90;;;15.25;71.83;103013.66;5069008;28;20448;-71
2021/11/23 09:29:06;;;;;;;10.35;5.00;;;14.90;99.90;;;15.31;73.46;103006.59;5053432;28;20072;-71
2021/11/23 09:31:34;;;;;;;9.23;4.57;;;14.90;99.90;;;15.50;73.57;103014.84;5053360;28;20263;-71
2021/11/23 09:34:03;;;;;;;9.95;4.32;;;15.10;99.90;;;15.55;72.90;103003.31;5052288;28;20456;-71
2021/11/23 09:36:40;;;;;;;9.02;4.68;;;15.10;99.90;;;15.53;72.07;103009.50;5053447;28;20059;-71
2021/11/23 09:39:10;;;;;;;10.93;4.47;;;15.20;99.90;;;15.42;72.04;103012.09;5053252;28;20410;-70
2021/11/23 09:41:39;;;;;;;9.05;4.68;;;15.10;99.90;;;15.26;73.02;103013.66;5068830;28;20049;-70
2021/11/23 09:44:08;;;;;;;10.38;4.72;;;14.90;99.90;;;15.20;73.30;103015.38;5053489;28;20102;-71
2021/11/23 09:46:40;;;;;;;9.45;4.82;;;14.80;99.90;;;14.57;75.37;103023.47;5053408;28;20049;-71
2021/11/23 09:49:09;;;;;;;11.98;4.50;;;14.30;99.90;;;14.74;75.13;103018.34;5053245;28;20048;-71
2021/11/23 09:51:40;;;;;;;10.52;5.28;;;14.40;99.90;;;14.81;74.90;103020.22;5053668;28;20060;-71
2021/11/23 09:54:11;;;;;;;11.20;4.43;;;14.40;99.90;;;14.41;75.04;102970.88;5052146;28;20508;-71
2021/11/23 09:56:43;;;;;;;12.02;5.15;;;14.40;99.90;;;14.49;75.60;103011.81;5053132;28;20045;-71
2021/11/23 09:59:12;;;;;;;10.85;5.20;;;14.20;99.90;;;14.18;77.02;103010.44;5052899;28;20066;-72
2021/11/23 10:01:51;;;;;;;8.77;4.93;;;13.90;99.90;;;14.15;77.14;102983.78;5053175;28;20478;-72
2021/11/23 10:04:22;;;;;;;9.95;5.30;;;14.00;99.90;;;14.48;76.64;103022.47;5052994;28;20049;-71
2021/11/23 10:06:59;;;;;;;9.27;4.68;;;14.10;99.90;;;14.44;76.69;103024.16;5052963;28;20045;-70
2021/11/23 10:09:31;;;;;;;9.60;4.90;;;14.10;99.90;;;14.29;77.28;103024.84;5052878;28;20044;-71
2021/11/23 10:12:22;;;;;;;14.77;5.50;;;14.00;99.90;;;14.03;78.32;103022.63;5051901;28;20379;-70
2021/11/23 10:15:11;;;;;;;;;;;13.70;99.90;;;14.07;79.86;103024.47;5053688;28;20115;-70
2021/11/23 10:17:43;;;;;;;11.35;5.10;;;13.60;99.90;;;14.37;79.58;103014.31;5051968;28;19971;-71
2021/11/23 10:20:34;;;;;;;12.93;4.40;;;13.90;99.90;;;13.82;77.27;102903.44;5053049;28;20086;-70
2021/11/23 10:23:25;;;;;;;7.72;3.80;;;14.20;99.90;;;14.90;76.26;103015.94;5050868;28;20418;-70